A4081 KDLF-KRND
Flight info
| Callsign | A4081 |
|---|---|
| Flight time | 1h 44m |
| Altitude | 7000 |
| Route | HINKO1 HINKO CSI CSI3 |
| Aircraft | S22T/L-SDGRY/S |
Departure
| Time | 2026-05-07 20:27 |
|---|---|
| Airport | Laughlin Air Force Base (KDLF) |
Arrival
| Time | 2026-05-07 22:12 |
|---|---|
| Airport | Randolph Air Force Base (KRND) |
| Time | Latitude | Longitude | Altitude | Speed | Heading |
|---|---|---|---|---|---|
| 2026-05-07 19:29 | 29.36045 | -100.78532 | 1084 ft | 0 kts | 135° |
| 2026-05-07 20:20 | 29.36042 | -100.78504 | 1084 ft | 10 kts | 57° |
| 2026-05-07 20:20 | 29.36014 | -100.78437 | 1084 ft | 5 kts | 135° |
| 2026-05-07 20:21 | 29.35970 | -100.78387 | 1084 ft | 12 kts | 135° |
| 2026-05-07 20:21 | 29.35896 | -100.78303 | 1084 ft | 18 kts | 133° |
| 2026-05-07 20:21 | 29.35813 | -100.78210 | 1082 ft | 17 kts | 137° |
| 2026-05-07 20:21 | 29.35744 | -100.78133 | 1082 ft | 13 kts | 136° |
| 2026-05-07 20:22 | 29.35668 | -100.78047 | 1082 ft | 18 kts | 134° |
| 2026-05-07 20:22 | 29.35568 | -100.77937 | 1082 ft | 21 kts | 141° |
| 2026-05-07 20:22 | 29.35476 | -100.77857 | 1085 ft | 14 kts | 135° |
| 2026-05-07 20:22 | 29.35407 | -100.77779 | 1085 ft | 15 kts | 132° |
| 2026-05-07 20:23 | 29.35331 | -100.77693 | 1086 ft | 13 kts | 135° |
| 2026-05-07 20:23 | 29.35258 | -100.77610 | 1087 ft | 12 kts | 119° |
| 2026-05-07 20:23 | 29.35280 | -100.77517 | 1086 ft | 15 kts | 75° |
| 2026-05-07 20:23 | 29.35303 | -100.77430 | 1086 ft | 10 kts | 72° |
| 2026-05-07 20:24 | 29.35326 | -100.77338 | 1084 ft | 12 kts | 77° |
| 2026-05-07 20:24 | 29.35336 | -100.77296 | 1083 ft | 0 kts | 61° |
| 2026-05-07 20:26 | 29.35338 | -100.77292 | 1083 ft | 3 kts | 60° |
| 2026-05-07 20:26 | 29.35377 | -100.77267 | 1083 ft | 6 kts | 359° |
| 2026-05-07 20:26 | 29.35399 | -100.77279 | 1083 ft | 0 kts | 314° |
| 2026-05-07 20:27 | 29.35591 | -100.77495 | 1083 ft | 76 kts | 315° |
| 2026-05-07 20:27 | 29.36010 | -100.77985 | 1324 ft | 86 kts | 310° |
| 2026-05-07 20:27 | 29.36420 | -100.78500 | 1646 ft | 87 kts | 306° |
| 2026-05-07 20:27 | 29.36725 | -100.79095 | 1957 ft | 86 kts | 285° |
| 2026-05-07 20:28 | 29.36752 | -100.79817 | 2149 ft | 100 kts | 254° |
| 2026-05-07 20:28 | 29.36387 | -100.80554 | 2281 ft | 113 kts | 226° |
| 2026-05-07 20:28 | 29.35729 | -100.81076 | 2426 ft | 119 kts | 203° |
| 2026-05-07 20:28 | 29.34913 | -100.81273 | 2570 ft | 122 kts | 181° |
| 2026-05-07 20:29 | 29.34069 | -100.81110 | 2719 ft | 125 kts | 161° |
| 2026-05-07 20:29 | 29.33320 | -100.80614 | 2846 ft | 127 kts | 141° |
| 2026-05-07 20:29 | 29.32748 | -100.79836 | 2984 ft | 129 kts | 121° |
| 2026-05-07 20:29 | 29.32411 | -100.78846 | 3008 ft | 138 kts | 103° |
| 2026-05-07 20:30 | 29.32344 | -100.77734 | 3009 ft | 143 kts | 86° |
| 2026-05-07 20:30 | 29.32564 | -100.76618 | 3009 ft | 145 kts | 69° |
| 2026-05-07 20:30 | 29.33057 | -100.75609 | 3009 ft | 146 kts | 52° |
| 2026-05-07 20:30 | 29.33783 | -100.74798 | 3010 ft | 146 kts | 36° |
| 2026-05-07 20:31 | 29.34678 | -100.74258 | 3009 ft | 146 kts | 19° |
| 2026-05-07 20:31 | 29.35674 | -100.74035 | 3010 ft | 146 kts | 2° |
| 2026-05-07 20:31 | 29.36677 | -100.74145 | 3009 ft | 145 kts | 345° |
| 2026-05-07 20:31 | 29.37606 | -100.74581 | 3009 ft | 144 kts | 328° |
| 2026-05-07 20:32 | 29.38381 | -100.75302 | 3009 ft | 144 kts | 311° |
| 2026-05-07 20:32 | 29.38936 | -100.76245 | 3008 ft | 143 kts | 294° |
| 2026-05-07 20:32 | 29.39224 | -100.77330 | 3010 ft | 142 kts | 277° |
| 2026-05-07 20:32 | 29.39220 | -100.78458 | 3010 ft | 141 kts | 260° |
| 2026-05-07 20:33 | 29.39334 | -100.79559 | 2989 ft | 143 kts | 296° |
| 2026-05-07 20:33 | 29.39937 | -100.80465 | 2990 ft | 144 kts | 314° |
| 2026-05-07 20:33 | 29.40657 | -100.81238 | 2992 ft | 143 kts | 316° |
| 2026-05-07 20:33 | 29.41034 | -100.82264 | 2993 ft | 141 kts | 271° |
| 2026-05-07 20:34 | 29.40823 | -100.83243 | 2799 ft | 127 kts | 213° |
| 2026-05-07 20:34 | 29.40000 | -100.83088 | 2378 ft | 127 kts | 145° |
| 2026-05-07 20:34 | 29.39388 | -100.82356 | 1895 ft | 132 kts | 130° |
| 2026-05-07 20:34 | 29.38839 | -100.81551 | 1623 ft | 121 kts | 128° |
| 2026-05-07 20:35 | 29.38363 | -100.80839 | 1523 ft | 108 kts | 130° |
| 2026-05-07 20:35 | 29.37861 | -100.80193 | 1395 ft | 109 kts | 138° |
| 2026-05-07 20:35 | 29.37324 | -100.79642 | 1305 ft | 95 kts | 138° |
| 2026-05-07 20:35 | 29.36870 | -100.79138 | 1189 ft | 89 kts | 137° |
| 2026-05-07 20:36 | 29.36433 | -100.78656 | 1093 ft | 82 kts | 137° |
| 2026-05-07 20:36 | 29.36080 | -100.78265 | 1085 ft | 60 kts | 135° |
| 2026-05-07 20:36 | 29.35822 | -100.77979 | 1082 ft | 31 kts | 137° |
| 2026-05-07 20:36 | 29.35799 | -100.77979 | 1082 ft | 11 kts | 319° |
| 2026-05-07 20:37 | 29.35756 | -100.78058 | 1082 ft | 15 kts | 229° |
| 2026-05-07 20:37 | 29.35681 | -100.78150 | 1083 ft | 10 kts | 211° |
| 2026-05-07 20:37 | 29.35655 | -100.78138 | 1084 ft | 0 kts | 134° |
| 2026-05-07 20:41 | 29.35652 | -100.78135 | 1084 ft | 2 kts | 136° |
| 2026-05-07 20:42 | 29.35672 | -100.78096 | 1083 ft | 11 kts | 44° |
| 2026-05-07 20:42 | 29.35640 | -100.78016 | 1082 ft | 15 kts | 135° |
| 2026-05-07 20:42 | 29.35584 | -100.77952 | 1082 ft | 11 kts | 135° |
| 2026-05-07 20:42 | 29.35512 | -100.77896 | 1084 ft | 11 kts | 143° |
| 2026-05-07 20:43 | 29.35448 | -100.77826 | 1085 ft | 13 kts | 135° |
| 2026-05-07 20:43 | 29.35378 | -100.77746 | 1085 ft | 12 kts | 134° |
| 2026-05-07 20:43 | 29.35333 | -100.77694 | 1086 ft | 10 kts | 137° |
| 2026-05-07 20:43 | 29.35270 | -100.77625 | 1087 ft | 15 kts | 137° |
| 2026-05-07 20:44 | 29.35183 | -100.77526 | 1085 ft | 19 kts | 135° |
| 2026-05-07 20:44 | 29.35100 | -100.77432 | 1083 ft | 17 kts | 135° |
| 2026-05-07 20:44 | 29.35014 | -100.77336 | 1082 ft | 17 kts | 135° |
| 2026-05-07 20:44 | 29.34961 | -100.77251 | 1080 ft | 12 kts | 54° |
| 2026-05-07 20:45 | 29.35025 | -100.77179 | 1080 ft | 10 kts | 42° |
| 2026-05-07 20:45 | 29.35081 | -100.77113 | 1081 ft | 15 kts | 45° |
| 2026-05-07 20:45 | 29.35149 | -100.77036 | 1079 ft | 12 kts | 27° |
| 2026-05-07 20:45 | 29.35189 | -100.77043 | 1080 ft | 0 kts | 310° |
| 2026-05-07 20:46 | 29.35275 | -100.77141 | 1082 ft | 54 kts | 316° |
| 2026-05-07 20:46 | 29.35670 | -100.77590 | 1175 ft | 92 kts | 313° |
| 2026-05-07 20:46 | 29.36107 | -100.78095 | 1523 ft | 87 kts | 311° |
| 2026-05-07 20:46 | 29.36557 | -100.78622 | 1729 ft | 100 kts | 312° |
| 2026-05-07 20:47 | 29.37082 | -100.79244 | 1834 ft | 116 kts | 313° |
| 2026-05-07 20:47 | 29.37675 | -100.79922 | 1949 ft | 124 kts | 313° |
| 2026-05-07 20:47 | 29.38307 | -100.80610 | 2074 ft | 126 kts | 316° |
| 2026-05-07 20:47 | 29.38942 | -100.81313 | 2205 ft | 127 kts | 313° |
| 2026-05-07 20:48 | 29.39581 | -100.82024 | 2333 ft | 128 kts | 314° |
| 2026-05-07 20:48 | 29.40228 | -100.82743 | 2459 ft | 133 kts | 314° |
| 2026-05-07 20:48 | 29.40925 | -100.83519 | 2594 ft | 145 kts | 314° |
| 2026-05-07 20:48 | 29.41677 | -100.84343 | 2740 ft | 152 kts | 316° |
| 2026-05-07 20:49 | 29.42654 | -100.84814 | 2849 ft | 160 kts | 359° |
| 2026-05-07 20:49 | 29.43669 | -100.84323 | 2960 ft | 164 kts | 43° |
| 2026-05-07 20:49 | 29.44171 | -100.83154 | 3069 ft | 166 kts | 76° |
| 2026-05-07 20:49 | 29.44438 | -100.81904 | 3320 ft | 158 kts | 75° |
| 2026-05-07 20:50 | 29.44715 | -100.80727 | 3684 ft | 148 kts | 75° |
| 2026-05-07 20:50 | 29.44980 | -100.79609 | 4043 ft | 142 kts | 75° |
| 2026-05-07 20:50 | 29.45236 | -100.78528 | 4402 ft | 139 kts | 75° |
| 2026-05-07 20:50 | 29.45487 | -100.77469 | 4729 ft | 139 kts | 75° |
| 2026-05-07 20:51 | 29.45741 | -100.76374 | 4978 ft | 144 kts | 75° |
| 2026-05-07 20:51 | 29.46004 | -100.75248 | 5233 ft | 147 kts | 75° |
| 2026-05-07 20:51 | 29.46273 | -100.74103 | 5488 ft | 150 kts | 75° |
| 2026-05-07 20:51 | 29.46547 | -100.72943 | 5743 ft | 151 kts | 75° |
| 2026-05-07 20:52 | 29.46823 | -100.71771 | 5996 ft | 153 kts | 75° |
| 2026-05-07 20:52 | 29.47102 | -100.70590 | 6248 ft | 154 kts | 75° |
| 2026-05-07 20:52 | 29.47382 | -100.69400 | 6500 ft | 155 kts | 75° |
| 2026-05-07 20:52 | 29.47663 | -100.68206 | 6751 ft | 155 kts | 75° |
| 2026-05-07 20:53 | 29.47957 | -100.67008 | 6986 ft | 158 kts | 70° |
| 2026-05-07 20:53 | 29.48628 | -100.65982 | 7010 ft | 171 kts | 38° |
| 2026-05-07 20:53 | 29.49598 | -100.65134 | 7010 ft | 179 kts | 37° |
| 2026-05-07 20:53 | 29.50592 | -100.64237 | 7011 ft | 184 kts | 38° |
| 2026-05-07 20:54 | 29.51607 | -100.63323 | 7005 ft | 187 kts | 37° |
| 2026-05-07 20:54 | 29.52635 | -100.62400 | 7009 ft | 188 kts | 37° |
| 2026-05-07 20:54 | 29.53671 | -100.61471 | 7011 ft | 189 kts | 37° |
| 2026-05-07 20:54 | 29.54710 | -100.60540 | 7004 ft | 190 kts | 37° |
| 2026-05-07 20:55 | 29.55739 | -100.59617 | 7012 ft | 190 kts | 37° |
| 2026-05-07 20:55 | 29.56779 | -100.58685 | 7000 ft | 190 kts | 37° |
| 2026-05-07 20:55 | 29.57823 | -100.57748 | 7005 ft | 190 kts | 37° |
| 2026-05-07 20:55 | 29.58862 | -100.56817 | 7005 ft | 190 kts | 37° |
| 2026-05-07 20:56 | 29.59906 | -100.55880 | 7004 ft | 190 kts | 37° |
| 2026-05-07 20:56 | 29.60949 | -100.54944 | 7006 ft | 190 kts | 37° |
| 2026-05-07 20:56 | 29.61994 | -100.54007 | 7004 ft | 190 kts | 37° |
| 2026-05-07 20:56 | 29.63016 | -100.53089 | 7007 ft | 190 kts | 37° |
| 2026-05-07 20:57 | 29.64076 | -100.52138 | 7007 ft | 190 kts | 37° |
| 2026-05-07 20:57 | 29.65119 | -100.51200 | 7007 ft | 190 kts | 37° |
| 2026-05-07 20:57 | 29.66148 | -100.50278 | 7001 ft | 190 kts | 38° |
| 2026-05-07 20:57 | 29.67188 | -100.49340 | 7006 ft | 190 kts | 37° |
| 2026-05-07 20:58 | 29.68227 | -100.48405 | 7005 ft | 190 kts | 37° |
| 2026-05-07 20:58 | 29.69269 | -100.47468 | 7003 ft | 190 kts | 37° |
| 2026-05-07 20:58 | 29.70312 | -100.46532 | 7000 ft | 190 kts | 37° |
| 2026-05-07 20:58 | 29.71350 | -100.45596 | 7001 ft | 190 kts | 37° |
| 2026-05-07 20:59 | 29.72391 | -100.44661 | 7002 ft | 190 kts | 38° |
| 2026-05-07 20:59 | 29.73432 | -100.43723 | 7005 ft | 190 kts | 37° |
| 2026-05-07 20:59 | 29.74474 | -100.42784 | 7001 ft | 190 kts | 37° |
| 2026-05-07 20:59 | 29.75514 | -100.41846 | 7002 ft | 190 kts | 37° |
| 2026-05-07 21:00 | 29.76556 | -100.40906 | 7004 ft | 190 kts | 37° |
| 2026-05-07 21:00 | 29.77596 | -100.39970 | 6999 ft | 190 kts | 37° |
| 2026-05-07 21:00 | 29.78631 | -100.39036 | 7106 ft | 184 kts | 37° |
| 2026-05-07 21:00 | 29.79618 | -100.38148 | 7301 ft | 178 kts | 37° |
| 2026-05-07 21:01 | 29.80596 | -100.37270 | 7420 ft | 178 kts | 37° |
| 2026-05-07 21:01 | 29.81569 | -100.36392 | 7540 ft | 178 kts | 37° |
| 2026-05-07 21:01 | 29.82541 | -100.35513 | 7663 ft | 178 kts | 37° |
| 2026-05-07 21:01 | 29.83187 | -100.34932 | 7745 ft | 178 kts | 37° |
| 2026-05-07 21:02 | 29.84487 | -100.33754 | 7912 ft | 178 kts | 37° |
| 2026-05-07 21:02 | 29.85131 | -100.33173 | 7993 ft | 178 kts | 37° |
| 2026-05-07 21:02 | 29.86423 | -100.32007 | 8158 ft | 178 kts | 37° |
| 2026-05-07 21:02 | 29.87399 | -100.31123 | 8283 ft | 178 kts | 37° |
| 2026-05-07 21:03 | 29.88376 | -100.30241 | 8407 ft | 179 kts | 37° |
| 2026-05-07 21:03 | 29.89036 | -100.29645 | 8492 ft | 179 kts | 37° |
| 2026-05-07 21:03 | 29.90018 | -100.28757 | 8615 ft | 179 kts | 37° |
| 2026-05-07 21:03 | 29.90984 | -100.27882 | 8740 ft | 179 kts | 37° |
| 2026-05-07 21:04 | 29.91966 | -100.26992 | 8864 ft | 179 kts | 37° |
| 2026-05-07 21:04 | 29.92949 | -100.26104 | 8986 ft | 180 kts | 38° |
| 2026-05-07 21:04 | 29.93954 | -100.25193 | 8998 ft | 186 kts | 38° |
| 2026-05-07 21:04 | 29.94981 | -100.24262 | 9003 ft | 189 kts | 38° |
| 2026-05-07 21:05 | 29.96023 | -100.23317 | 9006 ft | 192 kts | 37° |
| 2026-05-07 21:05 | 29.97075 | -100.22364 | 9005 ft | 193 kts | 38° |
| 2026-05-07 21:05 | 29.98131 | -100.21405 | 9007 ft | 194 kts | 38° |
| 2026-05-07 21:05 | 29.99191 | -100.20444 | 9006 ft | 194 kts | 38° |
| 2026-05-07 21:06 | 30.00253 | -100.19481 | 9008 ft | 194 kts | 38° |
| 2026-05-07 21:06 | 30.01317 | -100.18517 | 9009 ft | 194 kts | 38° |
| 2026-05-07 21:06 | 30.02381 | -100.17551 | 9009 ft | 194 kts | 38° |
| 2026-05-07 21:06 | 30.03431 | -100.16599 | 9006 ft | 195 kts | 38° |
| 2026-05-07 21:07 | 30.04495 | -100.15632 | 9012 ft | 195 kts | 38° |
| 2026-05-07 21:07 | 30.05559 | -100.14661 | 9010 ft | 195 kts | 39° |
| 2026-05-07 21:07 | 30.06381 | -100.13435 | 8991 ft | 195 kts | 64° |
| 2026-05-07 21:07 | 30.06728 | -100.11929 | 8989 ft | 194 kts | 86° |
| 2026-05-07 21:08 | 30.06582 | -100.10387 | 8993 ft | 194 kts | 102° |
| 2026-05-07 21:08 | 30.06331 | -100.08859 | 8996 ft | 193 kts | 100° |
| 2026-05-07 21:08 | 30.06095 | -100.07328 | 8995 ft | 193 kts | 100° |
| 2026-05-07 21:08 | 30.05859 | -100.05821 | 8997 ft | 193 kts | 101° |
| 2026-05-07 21:09 | 30.05616 | -100.04292 | 8997 ft | 194 kts | 101° |
| 2026-05-07 21:09 | 30.05373 | -100.02764 | 8997 ft | 194 kts | 101° |
| 2026-05-07 21:09 | 30.05131 | -100.01234 | 8997 ft | 194 kts | 101° |
| 2026-05-07 21:09 | 30.04889 | -99.99703 | 8998 ft | 194 kts | 101° |
| 2026-05-07 21:10 | 30.04646 | -99.98171 | 8999 ft | 194 kts | 101° |
| 2026-05-07 21:10 | 30.04403 | -99.96640 | 8998 ft | 194 kts | 101° |
| 2026-05-07 21:10 | 30.04160 | -99.95109 | 8998 ft | 194 kts | 101° |
| 2026-05-07 21:10 | 30.03916 | -99.93573 | 8998 ft | 194 kts | 101° |
| 2026-05-07 21:11 | 30.03672 | -99.92038 | 8998 ft | 195 kts | 101° |
| 2026-05-07 21:11 | 30.03426 | -99.90498 | 8999 ft | 194 kts | 101° |
| 2026-05-07 21:11 | 30.02937 | -99.87433 | 8997 ft | 194 kts | 101° |
| 2026-05-07 21:12 | 30.02696 | -99.85920 | 8997 ft | 194 kts | 101° |
| 2026-05-07 21:12 | 30.02452 | -99.84384 | 8997 ft | 194 kts | 101° |
| 2026-05-07 21:12 | 30.02206 | -99.82852 | 8997 ft | 194 kts | 101° |
| 2026-05-07 21:12 | 30.01960 | -99.81314 | 8996 ft | 194 kts | 101° |
| 2026-05-07 21:13 | 30.01718 | -99.79802 | 8996 ft | 194 kts | 101° |
| 2026-05-07 21:13 | 30.01474 | -99.78272 | 8996 ft | 194 kts | 101° |
| 2026-05-07 21:13 | 30.01228 | -99.76741 | 8996 ft | 194 kts | 101° |
| 2026-05-07 21:13 | 30.00982 | -99.75211 | 8995 ft | 194 kts | 101° |
| 2026-05-07 21:14 | 30.00737 | -99.73681 | 8995 ft | 194 kts | 101° |
| 2026-05-07 21:14 | 30.00492 | -99.72153 | 8995 ft | 194 kts | 101° |
| 2026-05-07 21:14 | 30.00245 | -99.70624 | 8995 ft | 194 kts | 101° |
| 2026-05-07 21:14 | 30.00000 | -99.69097 | 8996 ft | 194 kts | 101° |
| 2026-05-07 21:15 | 29.99754 | -99.67569 | 8995 ft | 194 kts | 101° |
| 2026-05-07 21:15 | 29.99510 | -99.66057 | 8995 ft | 194 kts | 101° |
| 2026-05-07 21:15 | 29.99261 | -99.64509 | 8995 ft | 194 kts | 101° |
| 2026-05-07 21:15 | 29.99016 | -99.63000 | 8994 ft | 194 kts | 101° |
| 2026-05-07 21:16 | 29.98767 | -99.61452 | 8996 ft | 194 kts | 101° |
| 2026-05-07 21:16 | 29.98523 | -99.59940 | 8996 ft | 194 kts | 101° |
| 2026-05-07 21:16 | 29.98275 | -99.58408 | 8997 ft | 195 kts | 101° |
| 2026-05-07 21:16 | 29.98026 | -99.56871 | 8996 ft | 194 kts | 101° |
| 2026-05-07 21:17 | 29.97779 | -99.55338 | 8996 ft | 194 kts | 101° |
| 2026-05-07 21:17 | 29.97529 | -99.53809 | 8995 ft | 194 kts | 101° |
| 2026-05-07 21:17 | 29.97281 | -99.52277 | 8995 ft | 194 kts | 101° |
| 2026-05-07 21:17 | 29.97033 | -99.50749 | 8995 ft | 194 kts | 101° |
| 2026-05-07 21:18 | 29.96785 | -99.49219 | 8996 ft | 194 kts | 101° |
| 2026-05-07 21:18 | 29.96536 | -99.47692 | 8995 ft | 194 kts | 101° |
| 2026-05-07 21:18 | 29.96287 | -99.46163 | 8996 ft | 194 kts | 101° |
| 2026-05-07 21:18 | 29.96037 | -99.44629 | 8996 ft | 195 kts | 101° |
| 2026-05-07 21:19 | 29.95787 | -99.43096 | 8997 ft | 194 kts | 101° |
| 2026-05-07 21:19 | 29.95538 | -99.41565 | 8996 ft | 195 kts | 101° |
| 2026-05-07 21:19 | 29.95288 | -99.40034 | 8994 ft | 194 kts | 101° |
| 2026-05-07 21:19 | 29.95037 | -99.38503 | 8996 ft | 194 kts | 101° |
| 2026-05-07 21:20 | 29.94788 | -99.36976 | 9037 ft | 192 kts | 101° |
| 2026-05-07 21:20 | 29.94543 | -99.35477 | 9134 ft | 189 kts | 101° |
| 2026-05-07 21:20 | 29.94305 | -99.34017 | 9226 ft | 187 kts | 101° |
| 2026-05-07 21:20 | 29.94063 | -99.32545 | 9325 ft | 186 kts | 101° |
| 2026-05-07 21:21 | 29.93826 | -99.31088 | 9461 ft | 183 kts | 101° |
| 2026-05-07 21:21 | 29.93600 | -99.29691 | 9788 ft | 172 kts | 101° |
| 2026-05-07 21:21 | 29.93379 | -99.28347 | 9992 ft | 174 kts | 101° |
| 2026-05-07 21:21 | 29.93146 | -99.26941 | 9998 ft | 183 kts | 101° |
| 2026-05-07 21:22 | 29.92903 | -99.25470 | 10006 ft | 189 kts | 101° |
| 2026-05-07 21:22 | 29.92654 | -99.23967 | 10009 ft | 192 kts | 101° |
| 2026-05-07 21:22 | 29.92402 | -99.22442 | 10006 ft | 194 kts | 101° |
| 2026-05-07 21:22 | 29.92059 | -99.20935 | 10000 ft | 195 kts | 114° |
| 2026-05-07 21:23 | 29.91475 | -99.19520 | 10004 ft | 195 kts | 115° |
| 2026-05-07 21:23 | 29.90918 | -99.18088 | 10006 ft | 196 kts | 114° |
| 2026-05-07 21:23 | 29.90365 | -99.16650 | 10009 ft | 196 kts | 115° |
| 2026-05-07 21:23 | 29.89805 | -99.15219 | 10011 ft | 196 kts | 115° |
| 2026-05-07 21:24 | 29.89250 | -99.13803 | 10011 ft | 196 kts | 115° |
| 2026-05-07 21:24 | 29.88691 | -99.12373 | 10007 ft | 196 kts | 115° |
| 2026-05-07 21:24 | 29.88130 | -99.10943 | 10006 ft | 196 kts | 115° |
| 2026-05-07 21:24 | 29.87570 | -99.09510 | 10007 ft | 196 kts | 115° |
| 2026-05-07 21:25 | 29.87008 | -99.08077 | 10008 ft | 196 kts | 115° |
| 2026-05-07 21:25 | 29.86446 | -99.06641 | 10013 ft | 197 kts | 115° |
| 2026-05-07 21:25 | 29.85884 | -99.05205 | 10007 ft | 197 kts | 115° |
| 2026-05-07 21:25 | 29.85319 | -99.03766 | 10007 ft | 197 kts | 115° |
| 2026-05-07 21:26 | 29.84754 | -99.02327 | 10007 ft | 197 kts | 115° |
| 2026-05-07 21:26 | 29.84192 | -99.00892 | 10007 ft | 197 kts | 115° |
| 2026-05-07 21:26 | 29.83616 | -98.99460 | 10004 ft | 196 kts | 118° |
| 2026-05-07 21:26 | 29.82757 | -98.98278 | 9993 ft | 196 kts | 136° |
| 2026-05-07 21:27 | 29.81801 | -98.97160 | 9996 ft | 196 kts | 134° |
| 2026-05-07 21:27 | 29.80865 | -98.96022 | 9997 ft | 196 kts | 134° |
| 2026-05-07 21:27 | 29.80133 | -98.94719 | 9989 ft | 197 kts | 106° |
| 2026-05-07 21:27 | 29.80233 | -98.93169 | 9993 ft | 198 kts | 68° |
| 2026-05-07 21:28 | 29.80805 | -98.91713 | 9854 ft | 201 kts | 69° |
| 2026-05-07 21:28 | 29.81181 | -98.90207 | 9609 ft | 192 kts | 77° |
| 2026-05-07 21:28 | 29.81477 | -98.88728 | 9365 ft | 187 kts | 77° |
| 2026-05-07 21:28 | 29.81791 | -98.87287 | 9121 ft | 184 kts | 76° |
| 2026-05-07 21:29 | 29.82114 | -98.85851 | 8878 ft | 187 kts | 76° |
| 2026-05-07 21:29 | 29.82434 | -98.84403 | 8629 ft | 187 kts | 76° |
| 2026-05-07 21:29 | 29.82750 | -98.82952 | 8381 ft | 187 kts | 76° |
| 2026-05-07 21:29 | 29.83068 | -98.81506 | 8134 ft | 186 kts | 76° |
| 2026-05-07 21:30 | 29.83383 | -98.80066 | 7885 ft | 185 kts | 76° |
| 2026-05-07 21:30 | 29.83697 | -98.78628 | 7641 ft | 184 kts | 76° |
| 2026-05-07 21:30 | 29.84010 | -98.77199 | 7397 ft | 184 kts | 76° |
| 2026-05-07 21:30 | 29.84321 | -98.75777 | 7148 ft | 183 kts | 76° |
| 2026-05-07 21:31 | 29.84625 | -98.74375 | 6915 ft | 182 kts | 76° |
| 2026-05-07 21:31 | 29.84933 | -98.72969 | 6675 ft | 181 kts | 76° |
| 2026-05-07 21:31 | 29.85242 | -98.71558 | 6434 ft | 180 kts | 76° |
| 2026-05-07 21:31 | 29.85547 | -98.70158 | 6193 ft | 180 kts | 76° |
| 2026-05-07 21:32 | 29.85851 | -98.68763 | 5954 ft | 179 kts | 76° |
| 2026-05-07 21:32 | 29.86152 | -98.67369 | 5718 ft | 179 kts | 76° |
| 2026-05-07 21:32 | 29.86456 | -98.65978 | 5481 ft | 178 kts | 76° |
| 2026-05-07 21:32 | 29.86758 | -98.64589 | 5244 ft | 178 kts | 76° |
| 2026-05-07 21:33 | 29.87057 | -98.63212 | 5008 ft | 177 kts | 76° |
| 2026-05-07 21:33 | 29.87355 | -98.61837 | 4773 ft | 177 kts | 76° |
| 2026-05-07 21:33 | 29.87650 | -98.60482 | 4542 ft | 176 kts | 76° |
| 2026-05-07 21:33 | 29.87947 | -98.59114 | 4309 ft | 176 kts | 76° |
| 2026-05-07 21:34 | 29.88243 | -98.57751 | 4070 ft | 175 kts | 76° |
| 2026-05-07 21:34 | 29.88535 | -98.56393 | 3843 ft | 175 kts | 76° |
| 2026-05-07 21:34 | 29.88833 | -98.55031 | 3610 ft | 175 kts | 76° |
| 2026-05-07 21:34 | 29.89128 | -98.53675 | 3378 ft | 174 kts | 76° |
| 2026-05-07 21:35 | 29.89277 | -98.52302 | 3143 ft | 173 kts | 97° |
| 2026-05-07 21:35 | 29.88905 | -98.51013 | 3004 ft | 166 kts | 121° |
| 2026-05-07 21:35 | 29.88164 | -98.50052 | 2988 ft | 157 kts | 144° |
| 2026-05-07 21:35 | 29.87205 | -98.49393 | 2991 ft | 165 kts | 150° |
| 2026-05-07 21:36 | 29.86213 | -98.48727 | 2994 ft | 164 kts | 150° |
| 2026-05-07 21:36 | 29.85224 | -98.48090 | 2993 ft | 160 kts | 156° |
| 2026-05-07 21:36 | 29.84292 | -98.47434 | 2962 ft | 154 kts | 149° |
| 2026-05-07 21:36 | 29.83381 | -98.46829 | 2994 ft | 146 kts | 152° |
| 2026-05-07 21:37 | 29.82514 | -98.46281 | 2997 ft | 145 kts | 149° |
| 2026-05-07 21:37 | 29.81665 | -98.45655 | 2937 ft | 147 kts | 149° |
| 2026-05-07 21:37 | 29.80786 | -98.45094 | 2969 ft | 142 kts | 152° |
| 2026-05-07 21:37 | 29.79924 | -98.44534 | 2980 ft | 141 kts | 151° |
| 2026-05-07 21:38 | 29.79139 | -98.44027 | 2945 ft | 143 kts | 152° |
| 2026-05-07 21:38 | 29.78250 | -98.43456 | 2995 ft | 154 kts | 151° |
| 2026-05-07 21:38 | 29.77284 | -98.42827 | 3004 ft | 164 kts | 151° |
| 2026-05-07 21:38 | 29.76275 | -98.42175 | 3010 ft | 168 kts | 151° |
| 2026-05-07 21:39 | 29.75253 | -98.41506 | 3016 ft | 170 kts | 150° |
| 2026-05-07 21:39 | 29.74231 | -98.40827 | 3003 ft | 167 kts | 151° |
| 2026-05-07 21:39 | 29.73233 | -98.40164 | 3006 ft | 165 kts | 150° |
| 2026-05-07 21:39 | 29.72256 | -98.39514 | 3004 ft | 164 kts | 150° |
| 2026-05-07 21:40 | 29.71296 | -98.38873 | 3001 ft | 163 kts | 150° |
| 2026-05-07 21:40 | 29.70311 | -98.38218 | 2999 ft | 162 kts | 150° |
| 2026-05-07 21:40 | 29.69333 | -98.37569 | 3000 ft | 163 kts | 151° |
| 2026-05-07 21:40 | 29.68349 | -98.36921 | 3001 ft | 163 kts | 150° |
| 2026-05-07 21:41 | 29.67370 | -98.36268 | 2997 ft | 160 kts | 150° |
| 2026-05-07 21:41 | 29.66433 | -98.35649 | 2988 ft | 151 kts | 151° |
| 2026-05-07 21:41 | 29.65545 | -98.35061 | 2989 ft | 144 kts | 150° |
| 2026-05-07 21:41 | 29.64680 | -98.34472 | 2802 ft | 150 kts | 150° |
| 2026-05-07 21:42 | 29.63860 | -98.33915 | 2846 ft | 134 kts | 150° |
| 2026-05-07 21:42 | 29.63132 | -98.33425 | 2821 ft | 117 kts | 152° |
| 2026-05-07 21:42 | 29.62429 | -98.32952 | 2720 ft | 118 kts | 150° |
| 2026-05-07 21:42 | 29.61711 | -98.32459 | 2526 ft | 123 kts | 150° |
| 2026-05-07 21:43 | 29.60934 | -98.31959 | 2205 ft | 132 kts | 152° |
| 2026-05-07 21:43 | 29.60134 | -98.31469 | 2007 ft | 129 kts | 153° |
| 2026-05-07 21:43 | 29.59364 | -98.30971 | 1838 ft | 125 kts | 150° |
| 2026-05-07 21:43 | 29.58619 | -98.30462 | 1647 ft | 125 kts | 149° |
| 2026-05-07 21:44 | 29.57877 | -98.29945 | 1461 ft | 124 kts | 149° |
| 2026-05-07 21:44 | 29.57140 | -98.29457 | 1332 ft | 120 kts | 152° |
| 2026-05-07 21:44 | 29.56418 | -98.29009 | 1276 ft | 114 kts | 153° |
| 2026-05-07 21:44 | 29.55728 | -98.28543 | 1153 ft | 117 kts | 149° |
| 2026-05-07 21:45 | 29.55020 | -98.28063 | 1022 ft | 119 kts | 151° |
| 2026-05-07 21:45 | 29.54268 | -98.27594 | 1008 ft | 123 kts | 152° |
| 2026-05-07 21:45 | 29.53514 | -98.27104 | 1227 ft | 130 kts | 150° |
| 2026-05-07 21:45 | 29.52717 | -98.26563 | 1479 ft | 136 kts | 149° |
| 2026-05-07 21:46 | 29.51913 | -98.25952 | 1753 ft | 139 kts | 140° |
| 2026-05-07 21:46 | 29.51812 | -98.24889 | 1908 ft | 151 kts | 60° |
| 2026-05-07 21:46 | 29.52625 | -98.24204 | 2149 ft | 151 kts | 21° |
| 2026-05-07 21:46 | 29.53649 | -98.23802 | 2341 ft | 156 kts | 22° |
| 2026-05-07 21:47 | 29.54588 | -98.23259 | 2740 ft | 145 kts | 27° |
| 2026-05-07 21:47 | 29.55499 | -98.22737 | 3024 ft | 149 kts | 25° |
| 2026-05-07 21:47 | 29.56430 | -98.22198 | 3314 ft | 151 kts | 33° |
| 2026-05-07 21:47 | 29.57043 | -98.21242 | 3598 ft | 151 kts | 68° |
| 2026-05-07 21:48 | 29.57406 | -98.20070 | 3761 ft | 159 kts | 71° |
| 2026-05-07 21:48 | 29.57803 | -98.18855 | 3917 ft | 164 kts | 68° |
| 2026-05-07 21:48 | 29.58273 | -98.17627 | 3987 ft | 170 kts | 64° |
| 2026-05-07 21:48 | 29.58852 | -98.16429 | 4073 ft | 175 kts | 58° |
| 2026-05-07 21:49 | 29.59546 | -98.15277 | 4133 ft | 176 kts | 55° |
| 2026-05-07 21:49 | 29.60215 | -98.14106 | 4049 ft | 175 kts | 57° |
| 2026-05-07 21:49 | 29.60872 | -98.12936 | 4002 ft | 172 kts | 57° |
| 2026-05-07 21:49 | 29.61516 | -98.11799 | 4008 ft | 168 kts | 57° |
| 2026-05-07 21:50 | 29.62147 | -98.10675 | 4004 ft | 167 kts | 57° |
| 2026-05-07 21:50 | 29.62765 | -98.09572 | 3995 ft | 165 kts | 57° |
| 2026-05-07 21:50 | 29.63386 | -98.08464 | 4001 ft | 165 kts | 57° |
| 2026-05-07 21:50 | 29.63999 | -98.07354 | 3993 ft | 165 kts | 57° |
| 2026-05-07 21:51 | 29.64619 | -98.06250 | 4002 ft | 165 kts | 57° |
| 2026-05-07 21:51 | 29.65242 | -98.05143 | 4003 ft | 165 kts | 57° |
| 2026-05-07 21:51 | 29.65869 | -98.04031 | 3995 ft | 165 kts | 57° |
| 2026-05-07 21:51 | 29.66488 | -98.02934 | 4002 ft | 164 kts | 57° |
| 2026-05-07 21:52 | 29.67110 | -98.01830 | 4003 ft | 163 kts | 56° |
| 2026-05-07 21:52 | 29.67727 | -98.00730 | 4000 ft | 164 kts | 57° |
| 2026-05-07 21:52 | 29.68136 | -98.00004 | 3989 ft | 163 kts | 57° |
| 2026-05-07 21:52 | 29.68757 | -97.98906 | 3992 ft | 164 kts | 57° |
| 2026-05-07 21:53 | 29.69379 | -97.97816 | 3988 ft | 163 kts | 56° |
| 2026-05-07 21:53 | 29.70018 | -97.96736 | 3995 ft | 163 kts | 53° |
| 2026-05-07 21:53 | 29.70836 | -97.95871 | 3954 ft | 165 kts | 16° |
| 2026-05-07 21:53 | 29.72292 | -97.96132 | 3973 ft | 161 kts | 329° |
| 2026-05-07 21:54 | 29.72742 | -97.96811 | 3954 ft | 159 kts | 288° |
| 2026-05-07 21:54 | 29.72981 | -97.98026 | 4006 ft | 156 kts | 279° |
| 2026-05-07 21:54 | 29.73187 | -97.99256 | 4007 ft | 157 kts | 281° |
| 2026-05-07 21:54 | 29.73422 | -98.00473 | 4004 ft | 158 kts | 282° |
| 2026-05-07 21:55 | 29.73678 | -98.01703 | 3999 ft | 158 kts | 282° |
| 2026-05-07 21:55 | 29.73942 | -98.02935 | 4004 ft | 158 kts | 283° |
| 2026-05-07 21:55 | 29.74205 | -98.04163 | 4008 ft | 158 kts | 282° |
| 2026-05-07 21:55 | 29.74439 | -98.05400 | 4008 ft | 158 kts | 281° |
| 2026-05-07 21:56 | 29.74653 | -98.06642 | 4009 ft | 159 kts | 279° |
| 2026-05-07 21:56 | 29.74849 | -98.07895 | 4002 ft | 159 kts | 279° |
| 2026-05-07 21:56 | 29.75033 | -98.09145 | 3996 ft | 157 kts | 278° |
| 2026-05-07 21:56 | 29.75203 | -98.10390 | 4007 ft | 158 kts | 277° |
| 2026-05-07 21:57 | 29.75362 | -98.11649 | 4001 ft | 160 kts | 277° |
| 2026-05-07 21:57 | 29.75510 | -98.12920 | 4010 ft | 160 kts | 276° |
| 2026-05-07 21:57 | 29.75649 | -98.14196 | 4012 ft | 161 kts | 276° |
| 2026-05-07 21:57 | 29.75797 | -98.15456 | 3997 ft | 161 kts | 283° |
| 2026-05-07 21:58 | 29.76344 | -98.16580 | 3998 ft | 163 kts | 310° |
| 2026-05-07 21:58 | 29.77129 | -98.17534 | 3921 ft | 166 kts | 313° |
| 2026-05-07 21:58 | 29.77936 | -98.18509 | 3521 ft | 170 kts | 311° |
| 2026-05-07 21:58 | 29.78656 | -98.19603 | 3079 ft | 171 kts | 304° |
| 2026-05-07 21:59 | 29.79099 | -98.20789 | 2994 ft | 153 kts | 279° |
| 2026-05-07 21:59 | 29.79238 | -98.21941 | 2987 ft | 140 kts | 275° |
| 2026-05-07 21:59 | 29.79341 | -98.23028 | 2995 ft | 133 kts | 275° |
| 2026-05-07 21:59 | 29.79416 | -98.24074 | 2987 ft | 129 kts | 270° |
| 2026-05-07 22:00 | 29.79417 | -98.25096 | 2990 ft | 127 kts | 269° |
| 2026-05-07 22:00 | 29.79421 | -98.26108 | 2992 ft | 126 kts | 269° |
| 2026-05-07 22:00 | 29.79414 | -98.27113 | 2992 ft | 125 kts | 268° |
| 2026-05-07 22:00 | 29.79399 | -98.28101 | 2994 ft | 124 kts | 266° |
| 2026-05-07 22:01 | 29.79312 | -98.29085 | 2992 ft | 123 kts | 258° |
| 2026-05-07 22:01 | 29.79110 | -98.30041 | 2993 ft | 122 kts | 254° |
| 2026-05-07 22:01 | 29.78843 | -98.30971 | 2990 ft | 122 kts | 250° |
| 2026-05-07 22:01 | 29.78569 | -98.31893 | 2990 ft | 122 kts | 250° |
| 2026-05-07 22:02 | 29.78295 | -98.32809 | 2992 ft | 121 kts | 250° |
| 2026-05-07 22:02 | 29.78023 | -98.33729 | 2992 ft | 121 kts | 250° |
| 2026-05-07 22:02 | 29.77753 | -98.34637 | 2993 ft | 122 kts | 250° |
| 2026-05-07 22:02 | 29.77479 | -98.35562 | 2992 ft | 122 kts | 250° |
| 2026-05-07 22:03 | 29.77205 | -98.36487 | 2994 ft | 122 kts | 250° |
| 2026-05-07 22:03 | 29.76930 | -98.37413 | 2989 ft | 122 kts | 250° |
| 2026-05-07 22:03 | 29.76657 | -98.38331 | 2994 ft | 121 kts | 250° |
| 2026-05-07 22:03 | 29.76382 | -98.39253 | 2997 ft | 122 kts | 250° |
| 2026-05-07 22:04 | 29.76106 | -98.40183 | 2999 ft | 123 kts | 250° |
| 2026-05-07 22:04 | 29.75798 | -98.41104 | 2995 ft | 123 kts | 236° |
| 2026-05-07 22:04 | 29.75106 | -98.41496 | 2985 ft | 109 kts | 173° |
| 2026-05-07 22:04 | 29.74537 | -98.41096 | 2980 ft | 87 kts | 150° |
| 2026-05-07 22:05 | 29.73990 | -98.40691 | 3000 ft | 101 kts | 146° |
| 2026-05-07 22:05 | 29.73361 | -98.40245 | 3012 ft | 114 kts | 150° |
| 2026-05-07 22:05 | 29.72621 | -98.39757 | 3013 ft | 130 kts | 152° |
| 2026-05-07 22:05 | 29.71819 | -98.39228 | 3013 ft | 139 kts | 151° |
| 2026-05-07 22:06 | 29.70967 | -98.38656 | 3014 ft | 144 kts | 150° |
| 2026-05-07 22:06 | 29.70089 | -98.38075 | 3012 ft | 147 kts | 151° |
| 2026-05-07 22:06 | 29.69191 | -98.37478 | 3011 ft | 150 kts | 150° |
| 2026-05-07 22:06 | 29.68282 | -98.36875 | 3007 ft | 151 kts | 150° |
| 2026-05-07 22:07 | 29.67368 | -98.36266 | 3005 ft | 151 kts | 150° |
| 2026-05-07 22:07 | 29.66462 | -98.35663 | 3006 ft | 151 kts | 150° |
| 2026-05-07 22:07 | 29.65551 | -98.35064 | 3007 ft | 150 kts | 151° |
| 2026-05-07 22:07 | 29.64645 | -98.34461 | 3007 ft | 150 kts | 151° |
| 2026-05-07 22:08 | 29.63782 | -98.33894 | 2886 ft | 136 kts | 151° |
| 2026-05-07 22:08 | 29.62982 | -98.33361 | 2707 ft | 130 kts | 150° |
| 2026-05-07 22:08 | 29.62206 | -98.32850 | 2538 ft | 126 kts | 151° |
| 2026-05-07 22:08 | 29.61451 | -98.32341 | 2371 ft | 124 kts | 150° |
| 2026-05-07 22:09 | 29.60698 | -98.31848 | 2206 ft | 125 kts | 151° |
| 2026-05-07 22:09 | 29.59951 | -98.31349 | 2040 ft | 124 kts | 151° |
| 2026-05-07 22:09 | 29.59219 | -98.30863 | 1878 ft | 123 kts | 151° |
| 2026-05-07 22:09 | 29.58490 | -98.30383 | 1722 ft | 115 kts | 152° |
| 2026-05-07 22:10 | 29.57834 | -98.29945 | 1571 ft | 104 kts | 151° |
| 2026-05-07 22:10 | 29.57230 | -98.29549 | 1436 ft | 97 kts | 151° |
| 2026-05-07 22:10 | 29.56656 | -98.29161 | 1283 ft | 95 kts | 150° |
| 2026-05-07 22:10 | 29.56103 | -98.28784 | 1177 ft | 90 kts | 152° |
| 2026-05-07 22:11 | 29.55556 | -98.28443 | 1076 ft | 90 kts | 153° |
| 2026-05-07 22:11 | 29.55018 | -98.28072 | 956 ft | 90 kts | 148° |
| 2026-05-07 22:11 | 29.54475 | -98.27718 | 827 ft | 87 kts | 152° |
| 2026-05-07 22:11 | 29.53987 | -98.27399 | 739 ft | 72 kts | 150° |
| 2026-05-07 22:12 | 29.53644 | -98.27180 | 739 ft | 37 kts | 149° |
| 2026-05-07 22:12 | 29.53456 | -98.27057 | 741 ft | 20 kts | 152° |
| 2026-05-07 22:12 | 29.53385 | -98.27067 | 740 ft | 13 kts | 242° |
| 2026-05-07 22:12 | 29.53336 | -98.27122 | 741 ft | 9 kts | 176° |
| 2026-05-07 22:13 | 29.53271 | -98.27093 | 740 ft | 0 kts | 185° |
| 2026-05-07 22:13 | 29.53253 | -98.27114 | 741 ft | 9 kts | 241° |
| 2026-05-07 22:13 | 29.53267 | -98.27146 | 742 ft | 5 kts | 34° |
| 2026-05-07 22:13 | 29.53273 | -98.27136 | 741 ft | 0 kts | 65° |